createdAt,value
2018-11-14T00:17:47.442Z,96179.12
2018-11-14T00:20:16.818Z,96181.91
2018-11-14T00:22:47.315Z,96182.89
2018-11-14T00:25:16.680Z,96175.62
2018-11-14T00:27:46.380Z,96177.08
2018-11-14T00:30:20.079Z,96178.56
2018-11-14T00:32:49.851Z,96174.42
2018-11-14T00:35:19.742Z,96169.23
2018-11-14T00:55:13.773Z,96143.20
2018-11-14T00:57:44.892Z,96144.45
2018-11-14T01:00:22.733Z,96142.88
2018-11-14T01:02:52.520Z,96144.55
2018-11-14T01:05:22.036Z,96145.94
2018-11-14T01:07:51.733Z,96138.12
2018-11-14T01:10:22.257Z,96136.87
2018-11-14T01:12:52.318Z,96139.80
2018-11-14T01:15:22.850Z,96141.12
2018-11-14T01:17:52.530Z,96135.20
2018-11-14T01:20:22.883Z,96136.58
2018-11-14T01:22:52.500Z,96131.11
2018-11-14T01:25:22.268Z,96130.81
2018-11-14T01:27:51.871Z,96137.65
2018-11-14T01:30:22.710Z,96138.77
2018-11-14T01:32:52.920Z,96133.77
2018-11-14T01:35:22.954Z,96140.68
2018-11-14T01:37:52.706Z,96130.61
2018-11-14T01:40:24.467Z,96128.16
2018-11-14T01:42:55.365Z,96131.68
2018-11-14T01:45:24.919Z,96127.88
2018-11-14T01:47:54.861Z,96133.88
2018-11-14T01:50:24.469Z,96122.71
2018-11-14T01:52:54.273Z,96119.79
2018-11-14T02:12:46.754Z,96118.59
2018-11-14T02:15:18.925Z,96120.67
2018-11-14T02:17:48.629Z,96118.89
2018-11-14T02:20:18.055Z,96104.21
2018-11-14T02:40:11.674Z,96105.77
2018-11-14T03:00:03.406Z,96089.87
2018-11-14T03:02:32.881Z,96090.42
2018-11-14T03:05:02.530Z,96099.48
2018-11-14T03:07:32.301Z,96103.70
2018-11-14T03:10:02.225Z,96102.84
2018-11-14T03:29:53.993Z,96087.53
2018-11-14T03:32:24.125Z,96094.62
2018-11-14T03:34:53.889Z,96095.00
2018-11-14T03:37:23.699Z,96095.38
2018-11-14T03:39:53.271Z,96091.13
2018-11-14T03:59:44.347Z,96076.37
2018-11-14T04:02:14.026Z,96078.24
2018-11-14T04:04:43.459Z,96071.41
2018-11-14T04:07:12.915Z,96080.77
2018-11-14T04:09:42.505Z,96090.75
2018-11-14T04:12:11.912Z,96096.55
2018-11-14T04:14:42.008Z,96093.93
2018-11-14T04:17:11.697Z,96101.51
2018-11-14T04:19:41.208Z,96099.41
2018-11-14T04:22:11.065Z,96092.56
2018-11-14T04:24:40.548Z,96095.16
2018-11-14T04:27:10.026Z,96097.30
2018-11-14T04:47:01.275Z,96089.55
2018-11-14T04:49:30.890Z,96085.04
2018-11-14T04:52:00.840Z,96079.17
2018-11-14T04:54:30.554Z,96078.44
2018-11-14T04:57:00.279Z,96079.17
2018-11-14T04:59:30.080Z,96082.69
2018-11-14T05:01:59.594Z,96079.73
2018-11-14T05:04:29.561Z,96083.87
2018-11-14T05:06:59.006Z,96092.34
2018-11-14T05:09:28.892Z,96090.34
2018-11-14T05:11:58.550Z,96086.53
2018-11-14T05:14:28.373Z,96084.69
2018-11-14T05:16:57.907Z,96086.02
2018-11-14T05:19:27.529Z,96089.61
2018-11-14T05:21:57.327Z,96092.28
2018-11-14T05:41:49.375Z,96124.70
2018-11-14T05:44:19.353Z,96135.06
2018-11-14T05:46:48.857Z,96131.70
2018-11-14T05:49:18.431Z,96125.15
2018-11-14T06:09:12.493Z,96128.59
2018-11-14T06:11:42.191Z,96124.07
2018-11-14T06:14:11.865Z,96119.31
2018-11-14T06:16:41.767Z,96111.10
2018-11-14T06:19:11.401Z,96114.19
2018-11-14T06:21:41.478Z,96105.61
2018-11-14T06:24:11.100Z,96114.08
2018-11-14T06:26:41.131Z,96115.58
2018-11-14T06:29:10.523Z,96118.22
2018-11-14T06:31:39.933Z,96126.91
2018-11-14T06:51:31.521Z,96111.62
2018-11-14T06:54:01.078Z,96119.55
2018-11-14T06:56:30.764Z,96123.72
2018-11-14T06:59:00.510Z,96121.02
2018-11-14T07:01:30.228Z,96118.95
2018-11-14T07:03:59.927Z,96126.48
2018-11-14T07:06:30.733Z,96122.18
2018-11-14T07:09:00.557Z,96114.67
2018-11-14T07:11:30.097Z,96111.69
2018-11-14T07:13:59.973Z,96102.80
2018-11-14T07:16:29.803Z,96108.58
2018-11-14T07:18:59.495Z,96100.25
2018-11-14T07:21:29.322Z,96102.24
2018-11-14T07:23:59.225Z,96096.07
2018-11-14T07:43:51.889Z,96103.74
2018-11-14T07:46:21.730Z,96106.47
2018-11-14T07:48:52.270Z,96109.84
2018-11-14T07:51:21.947Z,96105.98
2018-11-14T08:11:13.705Z,96090.77
2018-11-14T08:13:44.727Z,96088.49
2018-11-14T08:16:14.621Z,96085.70
2018-11-14T08:18:44.483Z,96080.20
2018-11-14T08:21:13.982Z,96081.30
2018-11-14T08:23:43.697Z,96082.27
2018-11-14T08:26:13.366Z,96085.52
2018-11-14T08:28:43.314Z,96086.14
2018-11-14T08:31:13.198Z,96098.48
2018-11-14T08:33:42.870Z,96092.60
2018-11-14T08:36:12.617Z,96093.03
2018-11-14T08:38:42.281Z,96093.42
2018-11-14T08:41:12.219Z,96086.72
2018-11-14T08:43:41.750Z,96088.33
2018-11-14T08:46:11.312Z,96078.63
2018-11-14T08:48:41.088Z,96075.53
2018-11-14T08:51:10.801Z,96072.11
2018-11-14T09:11:03.210Z,96077.17
2018-11-14T09:13:33.058Z,96079.18
2018-11-14T09:16:03.107Z,96070.05
2018-11-14T09:18:32.726Z,96062.50
2018-11-14T09:21:02.350Z,96050.34
2018-11-14T09:23:31.816Z,96051.81
2018-11-14T09:26:01.433Z,96048.53
2018-11-14T09:45:53.938Z,96035.34
2018-11-14T09:48:23.671Z,96030.23
2018-11-14T09:50:53.555Z,96027.05
2018-11-14T09:53:23.111Z,96022.45
2018-11-14T09:55:52.918Z,96019.34
2018-11-14T09:58:22.459Z,96013.77
2018-11-14T10:00:52.170Z,96011.02
2018-11-14T10:03:21.707Z,96011.02
2018-11-14T10:05:51.272Z,96010.13
2018-11-14T10:08:21.290Z,96012.61
2018-11-14T10:10:50.979Z,96008.91
2018-11-14T10:13:20.698Z,96011.08
2018-11-14T10:15:50.848Z,96014.37
2018-11-14T10:18:20.663Z,96000.94
2018-11-14T10:20:50.420Z,96001.30
2018-11-14T10:40:43.325Z,95988.07
2018-11-14T10:43:13.189Z,95985.02
2018-11-14T10:45:42.827Z,95981.02
2018-11-14T10:48:12.439Z,95983.58
2018-11-14T10:50:42.185Z,95976.69
2018-11-14T10:53:11.768Z,95977.04
2018-11-14T10:55:41.562Z,95983.63
2018-11-14T10:58:11.354Z,95987.03
2018-11-14T11:32:32.829Z,95961.53
2018-11-14T11:35:02.591Z,95961.98
2018-11-14T11:37:32.257Z,95957.53
2018-11-14T11:40:02.027Z,95951.22
2018-11-14T11:42:31.805Z,95946.08
2018-11-14T11:45:01.669Z,95949.27
2018-11-14T11:47:31.685Z,95943.69
2018-11-14T11:50:01.473Z,95951.67
2018-11-14T11:52:31.008Z,95947.88
2018-11-14T11:55:00.684Z,95942.60
2018-11-14T11:57:30.153Z,95941.35
2018-11-14T12:00:00.339Z,95942.60
2018-11-14T12:02:30.078Z,95940.55
2018-11-14T12:22:22.061Z,95925.52
2018-11-14T12:24:51.745Z,95926.10
2018-11-14T12:27:21.426Z,95927.55
2018-11-14T12:29:51.029Z,95921.66
2018-11-14T12:49:43.488Z,95919.50
2018-11-14T12:52:13.766Z,95916.58
2018-11-14T12:54:43.418Z,95911.80
2018-11-14T12:57:13.228Z,95911.62
2018-11-14T12:59:43.041Z,95911.92
2018-11-14T13:02:12.804Z,95907.86
2018-11-14T13:04:42.218Z,95903.27
2018-11-14T13:07:11.817Z,95908.98
2018-11-14T13:09:41.702Z,95908.14
2018-11-14T13:12:11.450Z,95903.05
2018-11-14T13:14:41.175Z,95912.03
2018-11-14T13:17:10.855Z,95905.41
2018-11-14T13:19:40.454Z,95906.45
2018-11-14T13:22:09.974Z,95909.92
2018-11-14T13:24:39.689Z,95908.98
2018-11-14T13:27:09.182Z,95904.33
2018-11-14T13:29:38.870Z,95903.19
2018-11-14T13:32:08.803Z,95909.83
2018-11-14T13:34:38.767Z,95906.35
2018-11-14T13:37:08.496Z,95913.19
2018-11-14T13:39:38.257Z,95904.77
2018-11-14T13:42:07.795Z,95910.14
2018-11-14T13:44:37.501Z,95911.03
2018-11-14T13:47:07.590Z,95912.97
2018-11-14T13:49:37.424Z,95908.19
2018-11-14T13:52:06.882Z,95904.48
2018-11-14T13:54:36.399Z,95902.16
2018-11-14T13:57:06.003Z,95900.11
2018-11-14T13:59:35.982Z,95893.62
2018-11-14T14:02:05.985Z,95902.19
2018-11-14T14:04:35.555Z,95896.59
2018-11-14T14:24:27.456Z,95893.40
2018-11-14T14:44:18.949Z,95898.40
2018-11-14T14:46:49.072Z,95894.58
2018-11-14T15:06:40.958Z,95906.73
2018-11-14T15:09:11.196Z,95907.37
2018-11-14T15:11:40.975Z,95915.37
2018-11-14T15:14:10.849Z,95913.97
2018-11-14T15:34:02.960Z,95929.72
2018-11-14T15:36:32.819Z,95926.74
2018-11-14T15:39:02.710Z,95926.38
2018-11-14T15:53:07.514Z,95944.77
2018-11-14T15:55:37.207Z,95947.53
2018-11-14T15:58:07.598Z,95949.23
2018-11-14T16:00:37.494Z,95943.80
2018-11-14T16:03:07.308Z,95946.35
2018-11-14T16:05:37.155Z,95950.27
2018-11-14T16:08:06.855Z,95945.60
2018-11-14T16:10:36.625Z,95941.97
2018-11-14T16:13:06.354Z,95950.56
2018-11-14T16:15:37.159Z,95932.30
2018-11-14T16:18:06.952Z,95935.75
2018-11-14T16:20:36.786Z,95931.78
2018-11-14T16:23:06.408Z,95942.17
2018-11-14T16:25:36.081Z,95942.39
2018-11-14T16:28:06.089Z,95926.74
2018-11-14T16:30:36.977Z,95932.82
2018-11-14T16:33:07.668Z,95937.81
2018-11-14T16:35:38.167Z,95938.22
2018-11-14T16:38:08.253Z,95940.23
2018-11-14T16:40:37.738Z,95932.84
2018-11-14T16:43:08.497Z,95930.83
2018-11-14T16:45:38.339Z,95924.59
2018-11-14T16:48:07.885Z,95922.58
2018-11-14T16:50:38.010Z,95914.75
2018-11-14T16:53:07.819Z,95927.20
2018-11-14T16:55:37.708Z,95920.61
2018-11-14T16:58:07.245Z,95926.74
2018-11-14T17:00:37.011Z,95934.66
2018-11-14T17:03:06.487Z,95937.31
2018-11-14T17:05:35.923Z,95933.52
2018-11-14T17:08:05.918Z,95927.55
2018-11-14T17:10:35.767Z,95916.81
2018-11-14T17:13:05.733Z,95925.81
2018-11-14T17:15:35.598Z,95915.94
2018-11-14T17:18:05.180Z,95918.42
2018-11-14T17:20:34.916Z,95914.35
2018-11-14T17:23:04.675Z,95926.36
2018-11-14T17:25:34.460Z,95926.20
2018-11-14T17:28:04.470Z,95913.48
2018-11-14T17:30:34.206Z,95923.20
2018-11-14T17:33:03.980Z,95922.77
2018-11-14T17:35:33.684Z,95926.03
2018-11-14T17:38:03.390Z,95930.81
2018-11-14T17:40:33.099Z,95932.05
2018-11-14T17:43:02.960Z,95923.52
2018-11-14T17:45:32.897Z,95919.30
2018-11-14T17:48:02.522Z,95919.80
2018-11-14T17:50:33.908Z,95923.62
2018-11-14T17:53:04.294Z,95925.45
2018-11-14T17:55:34.128Z,95924.45
2018-11-14T17:58:04.042Z,95913.19
2018-11-14T18:00:33.928Z,95919.67
2018-11-14T18:03:04.084Z,95910.55
2018-11-14T18:05:33.653Z,95912.84
2018-11-14T18:08:06.073Z,95905.98
2018-11-14T18:10:36.269Z,95912.31
2018-11-14T18:13:05.901Z,95899.11
2018-11-14T18:15:35.661Z,95895.79
2018-11-14T18:18:05.233Z,95895.52
2018-11-14T18:20:35.129Z,95893.30
2018-11-14T18:23:04.910Z,95900.11
2018-11-14T18:25:34.927Z,95905.89
2018-11-14T18:28:05.247Z,95909.64
2018-11-14T18:30:35.151Z,95908.53
2018-11-14T18:33:04.890Z,95909.64
2018-11-14T18:35:34.897Z,95908.80
2018-11-14T18:38:04.368Z,95913.90
2018-11-14T18:40:35.230Z,95904.86
2018-11-14T18:43:05.286Z,95892.00
2018-11-14T18:45:36.027Z,95885.35
2018-11-14T18:48:06.313Z,95898.70
2018-11-14T18:50:36.120Z,95898.25
2018-11-14T18:53:05.760Z,95896.81
2018-11-14T18:55:36.008Z,95907.28
2018-11-14T18:58:06.647Z,95900.77
2018-11-14T19:00:36.734Z,95909.42
2018-11-14T19:03:06.491Z,95906.53
2018-11-14T19:05:36.092Z,95914.77
2018-11-14T19:08:06.100Z,95906.91
2018-11-14T19:10:36.063Z,95901.97
2018-11-14T19:13:05.886Z,95902.03
2018-11-14T19:15:37.188Z,95898.95
2018-11-14T19:18:07.153Z,95892.92
2018-11-14T19:20:37.057Z,95898.75
2018-11-14T19:23:07.073Z,95898.88
2018-11-14T19:25:37.813Z,95890.69
2018-11-14T19:28:07.745Z,95892.58
2018-11-14T19:30:38.134Z,95904.38
2018-11-14T19:33:08.082Z,95899.23
2018-11-14T19:35:37.586Z,95889.59
2018-11-14T19:38:07.509Z,95894.66
2018-11-14T19:40:37.769Z,95896.05
2018-11-14T19:43:09.157Z,95894.66
2018-11-14T19:45:39.658Z,95896.20
2018-11-14T19:48:09.479Z,95887.59
2018-11-14T19:50:39.236Z,95891.70
2018-11-14T19:53:08.929Z,95892.50
2018-11-14T19:55:38.617Z,95894.17
2018-11-14T19:58:08.315Z,95894.39
2018-11-14T20:00:39.447Z,95902.53
2018-11-14T20:03:09.667Z,95886.42
2018-11-14T20:05:39.344Z,95895.83
2018-11-14T20:08:08.949Z,95894.16
2018-11-14T20:10:38.443Z,95890.20
2018-11-14T20:13:08.112Z,95887.41
2018-11-14T20:15:38.423Z,95891.92
2018-11-14T20:18:08.401Z,95892.80
2018-11-14T20:20:39.601Z,95891.49
2018-11-14T20:23:09.309Z,95883.66
2018-11-14T20:25:39.061Z,95886.55
2018-11-14T20:28:08.697Z,95878.22
2018-11-14T20:30:39.499Z,95886.27
2018-11-14T20:33:11.574Z,95878.72
2018-11-14T20:35:41.324Z,95883.35
2018-11-14T20:38:11.165Z,95880.30
2018-11-14T20:40:42.037Z,95875.61
2018-11-14T20:43:12.173Z,95871.33
2018-11-14T20:45:41.647Z,95863.05
2018-11-14T20:48:11.369Z,95862.18
2018-11-14T20:50:41.042Z,95860.59
2018-11-14T20:53:11.091Z,95858.92
2018-11-14T20:55:40.794Z,95871.61
2018-11-14T20:58:10.237Z,95859.22
2018-11-14T21:00:40.087Z,95847.83
2018-11-14T21:03:09.965Z,95852.61
2018-11-14T21:05:39.583Z,95850.30
2018-11-14T21:08:09.104Z,95856.98
2018-11-14T21:10:38.800Z,95847.84
2018-11-14T21:13:08.566Z,95841.32
2018-11-14T21:15:39.349Z,95847.31
2018-11-14T21:18:09.335Z,95844.66
2018-11-14T21:20:39.129Z,95839.34
2018-11-14T21:23:08.671Z,95849.87
2018-11-14T21:25:38.057Z,95852.24
2018-11-14T21:28:07.574Z,95853.64
2018-11-14T21:30:37.109Z,95847.98
2018-11-14T21:33:07.301Z,95855.66
2018-11-14T21:35:37.755Z,95858.70
2018-11-14T21:38:08.739Z,95858.88
2018-11-14T21:40:38.123Z,95862.33
2018-11-14T21:43:07.723Z,95857.83
2018-11-14T21:45:37.386Z,95862.77
2018-11-14T21:48:16.382Z,95853.64
2018-11-14T21:50:46.673Z,95852.89
2018-11-14T21:53:16.138Z,95852.24
2018-11-14T21:55:45.991Z,95847.39
2018-11-14T21:58:15.549Z,95855.22
2018-11-14T22:00:45.249Z,95847.66
2018-11-14T22:03:14.657Z,95843.46
2018-11-14T22:05:44.291Z,95836.50
2018-11-14T22:08:14.051Z,95837.80
2018-11-14T22:10:43.640Z,95834.78
2018-11-14T22:13:13.358Z,95820.94
2018-11-14T22:15:43.210Z,95821.08
2018-11-14T22:18:12.947Z,95825.44
2018-11-14T22:20:42.734Z,95822.73
2018-11-14T22:23:12.461Z,95825.07
2018-11-14T22:25:42.141Z,95828.98
2018-11-14T22:28:12.040Z,95825.20
2018-11-14T22:30:41.771Z,95830.20
2018-11-14T22:33:11.513Z,95831.59
2018-11-14T22:35:41.415Z,95838.39
2018-11-14T22:38:11.257Z,95826.63
2018-11-14T22:40:40.686Z,95820.11
2018-11-14T22:43:10.457Z,95816.92
2018-11-14T22:45:40.165Z,95817.11
2018-11-14T22:48:09.849Z,95812.66
2018-11-14T22:50:39.457Z,95817.16
2018-11-14T22:53:08.937Z,95809.98
2018-11-14T22:55:38.601Z,95811.35
2018-11-14T22:58:08.487Z,95808.69
2018-11-14T23:00:43.181Z,95797.53
2018-11-14T23:03:12.682Z,95798.66
2018-11-14T23:05:42.162Z,95800.64
2018-11-14T23:08:12.081Z,95799.70
2018-11-14T23:10:41.713Z,95801.27
2018-11-14T23:13:11.583Z,95793.75
2018-11-14T23:15:41.409Z,95794.47
2018-11-14T23:18:10.840Z,95793.44
2018-11-14T23:20:40.485Z,95792.72
2018-11-14T23:23:10.253Z,95787.01
2018-11-14T23:25:39.911Z,95789.70
2018-11-14T23:28:09.629Z,95783.46
2018-11-14T23:30:39.231Z,95778.16
2018-11-14T23:33:09.213Z,95779.91
2018-11-14T23:35:38.871Z,95784.63
2018-11-14T23:38:08.587Z,95779.83
2018-11-14T23:40:38.165Z,95774.32
2018-11-14T23:43:07.884Z,95782.73
2018-11-14T23:45:37.461Z,95768.80
2018-11-14T23:48:07.413Z,95779.41
2018-11-14T23:50:37.025Z,95781.72
2018-11-14T23:53:06.926Z,95785.03
2018-11-14T23:55:36.541Z,95784.63
2018-11-14T23:58:06.698Z,95775.31
